Time;durP1;ratioP1;P1;durP2;ratioP2;P2;SDS_P1;SDS_P2;PMS_P1;PMS_P2;Temp;Humidity;BMP_temperature;BMP_pressure;BME280_temperature;BME280_humidity;BME280_pressure;Samples;Min_cycle;Max_cycle;Signal;HPM_P1;HPM_P2
2023/01/29 00:01:50;;;;;;;6.65;4.30;;;3.60;99.90;;;;;;5075281;28;20032;-63
2023/01/29 00:04:17;;;;;;;7.78;4.57;;;3.60;99.90;;;;;;5073518;28;20060;-63
2023/01/29 00:06:42;;;;;;;8.43;4.25;;;3.60;99.90;;;;;;5074837;28;20047;-63
2023/01/29 00:09:08;;;;;;;10.80;4.80;;;3.60;99.90;;;;;;5075116;28;20036;-63
2023/01/29 00:11:34;;;;;;;9.20;4.53;;;3.60;99.90;;;;;;5075095;28;20035;-62
2023/01/29 00:14:00;;;;;;;7.25;4.70;;;3.60;99.90;;;;;;5074996;28;20040;-63
2023/01/29 00:16:26;;;;;;;9.20;4.28;;;3.60;99.90;;;;;;5074627;28;20044;-63
2023/01/29 00:18:52;;;;;;;11.90;5.45;;;3.60;99.90;;;;;;5074651;28;20036;-63
2023/01/29 00:21:20;;;;;;;10.48;4.80;;;3.60;99.90;;;;;;5074559;28;20047;-62
2023/01/29 00:23:46;;;;;;;7.72;4.75;;;3.60;99.90;;;;;;5074869;28;20091;-63
2023/01/29 00:26:12;;;;;;;9.65;4.90;;;3.60;99.90;;;;;;5073494;28;20455;-63
2023/01/29 00:28:38;;;;;;;10.45;5.47;;;3.60;99.90;;;;;;5074813;28;20041;-63
2023/01/29 00:31:23;;;;;;;14.27;5.47;;;3.60;99.90;;;;;;5074528;28;20369;-63
2023/01/29 00:33:49;;;;;;;8.68;4.57;;;3.60;99.90;;;;;;5074688;28;20028;-63
2023/01/29 00:36:17;;;;;;;10.30;4.90;;;3.60;99.90;;;;;;5073066;28;20391;-62
2023/01/29 00:38:43;;;;;;;12.52;5.40;;;3.60;99.90;;;;;;5074187;28;20072;-62
2023/01/29 00:46:43;;;;;;;10.88;5.32;;;3.60;99.90;;;;;;5074389;28;20088;-63
2023/01/29 00:49:09;;;;;;;10.68;5.78;;;3.60;99.90;;;;;;5073047;28;20109;-63
2023/01/29 00:51:37;;;;;;;11.57;4.82;;;3.60;99.90;;;;;;5074262;28;20044;-62
2023/01/29 00:54:05;;;;;;;12.05;6.00;;;3.60;99.90;;;;;;5074197;28;20048;-63
2023/01/29 00:56:32;;;;;;;9.05;5.07;;;3.60;99.90;;;;;;5072639;28;20452;-62
2023/01/29 00:58:58;;;;;;;14.45;5.22;;;3.60;99.90;;;;;;5073796;28;20121;-63
2023/01/29 01:04:10;;;;;;;9.32;5.20;;;3.60;99.90;;;;;;5073378;28;20045;-63
2023/01/29 01:06:37;;;;;;;12.57;5.57;;;3.60;99.90;;;;;;5072017;28;20052;-63
2023/01/29 01:11:47;;;;;;;10.77;6.35;;;3.60;99.90;;;;;;5072275;28;20131;-62
2023/01/29 01:14:13;;;;;;;10.18;5.75;;;3.60;99.90;;;;;;5072297;28;20179;-63
2023/01/29 01:16:38;;;;;;;10.27;5.22;;;3.60;99.90;;;;;;5072244;28;20040;-63
2023/01/29 01:19:04;;;;;;;13.23;5.70;;;3.60;99.90;;;;;;5073719;28;20040;-63
2023/01/29 01:21:31;;;;;;;13.50;6.25;;;3.60;99.90;;;;;;5073398;28;20037;-63
2023/01/29 01:23:57;;;;;;;14.55;6.85;;;3.60;99.90;;;;;;5073218;28;20045;-63
2023/01/29 01:26:22;;;;;;;16.85;6.43;;;3.60;99.90;;;;;;5055470;28;20439;-63
2023/01/29 01:28:48;;;;;;;12.35;5.45;;;3.60;99.90;;;;;;5073596;28;20044;-63
2023/01/29 01:31:14;;;;;;;13.75;5.72;;;3.60;99.90;;;;;;5073230;28;20437;-62
2023/01/29 01:33:40;;;;;;;10.05;6.10;;;3.60;99.90;;;;;;5071984;28;20402;-62
2023/01/29 01:36:08;;;;;;;10.45;5.35;;;3.60;99.90;;;;;;5073388;28;20072;-63
2023/01/29 01:38:43;;;;;;;11.18;5.75;;;3.70;99.90;;;;;;5073462;28;20380;-62
2023/01/29 01:41:10;;;;;;;12.35;5.85;;;3.60;99.90;;;;;;5073373;28;20086;-62
2023/01/29 01:43:49;;;;;;;11.35;5.88;;;3.60;99.90;;;;;;5073116;28;20112;-63
2023/01/29 01:46:14;;;;;;;16.65;6.55;;;3.60;99.90;;;;;;5072051;28;20123;-63
2023/01/29 01:48:41;;;;;;;10.18;6.18;;;3.60;99.90;;;;;;5073251;28;20068;-63
2023/01/29 01:51:06;;;;;;;13.43;6.25;;;3.70;99.90;;;;;;5071716;28;20068;-63
2023/01/29 01:53:37;;;;;;;9.63;6.50;;;3.70;99.90;;;;;;5073198;28;20040;-62
2023/01/29 01:56:08;;;;;;;18.08;6.43;;;3.70;99.90;;;;;;5073252;28;20083;-62
2023/01/29 01:58:38;;;;;;;12.25;6.40;;;3.70;99.90;;;;;;5073228;28;20040;-63
2023/01/29 02:01:06;;;;;;;12.20;6.47;;;3.70;99.90;;;;;;5072850;28;20041;-63
2023/01/29 02:11:56;;;;;;;10.38;5.80;;;3.70;99.90;;;;;;5072988;28;20084;-63
2023/01/29 02:14:24;;;;;;;12.27;6.63;;;3.60;99.90;;;;;;5072991;28;20068;-63
2023/01/29 02:16:50;;;;;;;9.75;6.22;;;3.70;99.90;;;;;;5072697;28;20040;-63
2023/01/29 02:19:31;;;;;;;12.40;7.07;;;3.60;99.90;;;;;;5072531;28;20048;-63
2023/01/29 02:22:19;;;;;;;14.13;6.53;;;3.60;99.90;;;;;;5072953;28;20097;-62
2023/01/29 02:24:47;;;;;;;12.80;6.93;;;3.70;99.90;;;;;;5072665;28;20079;-63
2023/01/29 02:27:18;;;;;;;11.27;5.90;;;3.70;99.90;;;;;;5071385;28;20036;-62
2023/01/29 02:30:08;;;;;;;15.02;7.35;;;3.70;99.90;;;;;;5071630;28;20068;-62
2023/01/29 02:32:40;;;;;;;15.75;7.15;;;3.70;99.90;;;;;;5072890;28;20127;-62
2023/01/29 02:35:28;;;;;;;11.32;7.38;;;3.70;99.90;;;;;;5072803;28;20044;-62
2023/01/29 02:37:57;;;;;;;14.77;6.70;;;3.70;99.90;;;;;;5072467;28;20036;-63
2023/01/29 02:40:47;;;;;;;11.82;6.07;;;3.70;99.90;;;;;;5072742;28;20119;-62
2023/01/29 02:43:27;;;;;;;15.07;7.05;;;3.70;99.90;;;;;;5072421;28;20051;-62
2023/01/29 02:46:30;;;;;;;10.50;6.22;;;3.70;99.90;;;;;;5071243;28;20083;-62
2023/01/29 02:49:07;;;;;;;11.48;6.03;;;3.60;99.90;;;;;;5072377;28;20048;-62
2023/01/29 02:51:45;;;;;;;11.43;6.68;;;3.70;99.90;;;;;;5072545;28;20051;-63
2023/01/29 02:54:26;;;;;;;13.25;6.47;;;3.70;99.90;;;;;;5072529;28;20446;-63
2023/01/29 02:57:16;;;;;;;12.38;6.05;;;3.60;99.90;;;;;;5071109;28;20041;-62
2023/01/29 02:59:56;;;;;;;12.88;5.78;;;3.70;99.90;;;;;;5072572;28;20479;-62
2023/01/29 03:02:48;;;;;;;15.25;7.03;;;3.70;99.90;;;;;;5072450;28;20040;-63
2023/01/29 03:05:16;;;;;;;;;;;3.70;99.90;;;;;;5072384;28;20051;-62
2023/01/29 03:07:49;;;;;;;12.00;6.28;;;4.50;99.90;;;;;;5072495;28;19916;-62
2023/01/29 03:10:26;;;;;;;16.92;6.80;;;3.70;99.90;;;;;;5072004;28;20053;-62
2023/01/29 03:13:18;;;;;;;12.25;6.22;;;3.70;99.90;;;;;;5072077;28;20036;-62
2023/01/29 03:16:00;;;;;;;11.20;6.18;;;3.70;99.90;;;;;;5072326;28;20428;-63
2023/01/29 03:18:29;;;;;;;;;;;3.70;99.90;;;;;;5071290;28;20111;-63
2023/01/29 03:21:00;;;;;;;12.48;6.13;;;3.70;99.90;;;;;;5072040;28;19916;-63
2023/01/29 03:32:06;;;;;;;11.63;6.43;;;3.80;99.90;;;;;;5075701;28;20407;-62
2023/01/29 03:34:42;;;;;;;12.05;6.40;;;3.80;99.90;;;;;;5075861;28;20033;-62
2023/01/29 03:37:29;;;;;;;10.50;6.13;;;3.80;99.90;;;;;;5074503;28;20123;-62
2023/01/29 03:39:55;;;;;;;10.38;6.25;;;3.80;99.90;;;;;;5075659;28;20039;-63
2023/01/29 03:42:39;;;;;;;13.80;6.32;;;3.80;99.90;;;;;;5074028;28;20476;-63
2023/01/29 03:45:30;;;;;;;12.60;6.45;;;3.80;99.90;;;;;;5075175;28;20048;-62
2023/01/29 03:48:34;;;;;;;11.00;5.95;;;3.80;99.90;;;;;;5075585;28;20040;-62
2023/01/29 03:51:22;;;;;;;10.43;5.65;;;3.80;99.90;;;;;;5071861;28;20044;-63
2023/01/29 03:54:17;;;;;;;8.95;4.90;;;3.90;99.90;;;;;;5075138;28;20039;-62
2023/01/29 03:57:01;;;;;;;10.95;6.60;;;3.80;99.90;;;;;;5069504;28;20040;-62
2023/01/29 03:59:32;;;;;;;10.80;6.03;;;3.90;99.90;;;;;;5074993;28;20074;-63
2023/01/29 04:02:01;;;;;;;12.10;6.07;;;3.80;99.90;;;;;;5074962;28;20055;-63
2023/01/29 04:04:31;;;;;;;11.43;6.03;;;3.90;99.90;;;;;;5074811;28;20151;-63
2023/01/29 04:07:23;;;;;;;11.95;6.93;;;3.80;99.90;;;;;;5075048;28;20073;-63
2023/01/29 04:10:08;;;;;;;10.52;5.78;;;3.90;99.90;;;;;;5073474;28;20403;-62
2023/01/29 04:12:41;;;;;;;9.85;5.95;;;3.90;99.90;;;;;;5074927;28;20044;-62
2023/01/29 04:15:11;;;;;;;12.32;6.10;;;3.90;99.90;;;;;;5073860;28;20029;-63
2023/01/29 04:17:40;;;;;;;11.23;6.72;;;3.90;99.90;;;;;;5075022;28;20064;-62
2023/01/29 04:20:06;;;;;;;10.23;6.55;;;3.80;99.90;;;;;;5074970;28;20044;-62
2023/01/29 04:22:35;;;;;;;11.77;6.90;;;3.90;99.90;;;;;;5073672;28;20048;-62
2023/01/29 04:25:07;;;;;;;11.13;6.15;;;3.90;99.90;;;;;;5073367;28;20052;-62
2023/01/29 04:27:51;;;;;;;10.93;5.72;;;3.90;99.90;;;;;;5073658;28;20395;-62
2023/01/29 04:30:50;;;;;;;11.23;6.10;;;3.90;99.90;;;;;;5074410;28;20076;-63
2023/01/29 04:33:34;;;;;;;13.80;5.88;;;3.90;99.90;;;;;;5074736;28;20040;-62
2023/01/29 04:36:20;;;;;;;11.95;6.18;;;3.90;99.90;;;;;;5073105;28;20040;-62
2023/01/29 04:39:06;;;;;;;11.15;5.35;;;3.90;99.90;;;;;;5073075;28;20053;-62
2023/01/29 04:41:40;;;;;;;13.20;7.28;;;3.90;99.90;;;;;;5073782;28;20396;-63
2023/01/29 04:44:32;;;;;;;13.98;6.22;;;3.90;99.90;;;;;;5074497;28;20119;-63
2023/01/29 04:47:14;;;;;;;11.98;6.28;;;3.90;99.90;;;;;;5074369;28;20045;-62
2023/01/29 04:49:55;;;;;;;11.73;6.60;;;3.90;99.90;;;;;;5074312;28;20083;-63
2023/01/29 04:52:26;;;;;;;;;;;3.90;99.90;;;;;;5074336;28;20047;-63
2023/01/29 04:55:26;;;;;;;13.07;6.75;;;3.90;99.90;;;;;;5074530;28;19916;-62
2023/01/29 04:58:28;;;;;;;14.50;6.80;;;3.90;99.90;;;;;;5073863;28;20044;-63
2023/01/29 05:00:53;;;;;;;;;;;3.90;99.90;;;;;;5073078;28;20052;-62
2023/01/29 05:03:23;;;;;;;10.77;5.30;;;3.90;99.90;;;;;;5074025;28;19920;-62
2023/01/29 05:05:50;;;;;;;8.27;4.70;;;3.90;99.90;;;;;;5073601;28;20056;-62
2023/01/29 05:08:19;;;;;;;14.27;6.35;;;3.90;99.90;;;;;;5074002;28;20102;-62
2023/01/29 05:10:47;;;;;;;11.65;7.10;;;3.90;99.90;;;;;;5073955;28;20047;-62
2023/01/29 05:13:14;;;;;;;13.73;6.50;;;3.90;99.90;;;;;;5073849;28;20543;-62
2023/01/29 05:15:54;;;;;;;15.25;7.75;;;3.90;99.90;;;;;;5073816;28;20078;-63
2023/01/29 05:18:19;;;;;;;14.60;7.22;;;3.90;99.90;;;;;;5073433;28;20040;-62
2023/01/29 05:20:47;;;;;;;9.95;6.20;;;3.90;99.90;;;;;;5073810;28;20041;-63
2023/01/29 05:23:16;;;;;;;16.77;7.22;;;3.90;99.90;;;;;;5073643;28;20040;-62
2023/01/29 05:25:43;;;;;;;15.32;7.65;;;3.90;99.90;;;;;;5073375;28;20032;-62
2023/01/29 05:28:17;;;;;;;14.10;6.57;;;3.90;99.90;;;;;;5073606;28;20058;-63
2023/01/29 05:30:45;;;;;;;12.77;7.22;;;4.00;99.90;;;;;;5073539;28;20040;-63
2023/01/29 05:33:26;;;;;;;12.68;6.65;;;3.90;99.90;;;;;;5072287;28;20036;-62
2023/01/29 05:35:53;;;;;;;11.25;6.50;;;3.90;99.90;;;;;;5073541;28;20035;-62
2023/01/29 05:38:18;;;;;;;12.43;6.25;;;4.00;99.90;;;;;;5073432;28;20040;-62
2023/01/29 05:40:44;;;;;;;14.57;7.72;;;3.90;99.90;;;;;;5073435;28;20048;-62
2023/01/29 05:43:19;;;;;;;14.73;7.90;;;3.90;99.90;;;;;;5073322;28;20040;-62
2023/01/29 05:46:00;;;;;;;18.83;8.13;;;3.90;99.90;;;;;;5073461;28;20070;-62
2023/01/29 05:48:31;;;;;;;20.23;7.43;;;3.90;99.90;;;;;;5073350;28;20119;-62
2023/01/29 05:51:03;;;;;;;15.20;7.53;;;3.90;99.90;;;;;;5073244;28;20047;-62
2023/01/29 05:53:30;;;;;;;16.85;8.00;;;4.00;99.90;;;;;;5071557;28;20040;-62
2023/01/29 05:55:59;;;;;;;12.65;7.00;;;3.90;99.90;;;;;;5071969;28;20280;-62
2023/01/29 05:58:24;;;;;;;18.35;8.38;;;3.90;99.90;;;;;;5073230;28;20085;-62
2023/01/29 06:00:50;;;;;;;13.25;7.90;;;3.90;99.90;;;;;;5073127;28;20127;-62
2023/01/29 06:03:15;;;;;;;16.83;7.88;;;3.90;99.90;;;;;;5073108;28;20040;-62
2023/01/29 06:05:41;;;;;;;18.58;7.85;;;3.90;99.90;;;;;;5072777;28;20052;-63
2023/01/29 06:08:07;;;;;;;16.15;8.63;;;3.90;99.90;;;;;;5073039;28;20515;-62
2023/01/29 06:10:33;;;;;;;14.85;8.23;;;3.90;99.90;;;;;;5073018;28;20040;-62
2023/01/29 06:12:59;;;;;;;11.63;8.07;;;3.90;99.90;;;;;;5072814;28;20036;-62
2023/01/29 06:15:25;;;;;;;12.25;7.15;;;3.90;99.90;;;;;;5072955;28;20068;-62
2023/01/29 06:17:53;;;;;;;10.95;7.40;;;4.00;99.90;;;;;;5072681;28;20126;-63
2023/01/29 06:20:18;;;;;;;18.10;8.68;;;4.00;99.90;;;;;;5073004;28;20395;-62
2023/01/29 06:22:44;;;;;;;15.50;7.97;;;3.90;99.90;;;;;;5071524;28;20039;-62
2023/01/29 06:25:10;;;;;;;12.02;7.70;;;4.00;99.90;;;;;;5071320;28;20123;-62
2023/01/29 06:27:35;;;;;;;11.48;7.20;;;3.90;99.90;;;;;;5072612;28;20043;-62
2023/01/29 06:30:05;;;;;;;12.80;7.88;;;4.00;99.90;;;;;;5072695;28;20032;-63
2023/01/29 06:32:31;;;;;;;12.02;7.45;;;4.00;99.90;;;;;;5072808;28;20036;-63
2023/01/29 06:34:56;;;;;;;12.82;8.18;;;4.00;99.90;;;;;;5072832;28;20125;-63
2023/01/29 06:37:22;;;;;;;14.15;7.97;;;4.00;99.90;;;;;;5072714;28;20041;-63
2023/01/29 06:39:48;;;;;;;14.40;7.53;;;4.00;99.90;;;;;;5072779;28;20033;-63
2023/01/29 06:42:13;;;;;;;12.05;7.65;;;4.00;99.90;;;;;;5072728;28;20068;-63
2023/01/29 06:44:39;;;;;;;16.17;7.57;;;4.00;99.90;;;;;;5071259;28;20041;-63
2023/01/29 06:47:04;;;;;;;13.23;8.30;;;4.00;99.90;;;;;;5072716;28;20041;-63
2023/01/29 06:49:31;;;;;;;16.92;8.10;;;4.00;99.90;;;;;;5072388;28;20120;-63
2023/01/29 06:51:56;;;;;;;16.27;7.55;;;4.00;99.90;;;;;;5071108;28;20091;-63
2023/01/29 06:54:22;;;;;;;14.68;8.35;;;4.00;99.90;;;;;;5072563;28;20068;-63
2023/01/29 06:56:48;;;;;;;14.50;8.10;;;4.00;99.90;;;;;;5070999;28;20539;-63
2023/01/29 06:59:13;;;;;;;15.07;8.93;;;4.00;99.90;;;;;;5071016;28;20391;-63
2023/01/29 07:01:43;;;;;;;17.58;8.55;;;4.10;99.90;;;;;;5071422;28;20116;-63
2023/01/29 07:04:09;;;;;;;15.43;8.35;;;4.00;99.90;;;;;;5073660;28;20119;-63
2023/01/29 07:06:35;;;;;;;13.93;8.13;;;4.10;99.90;;;;;;5076370;28;20127;-63
2023/01/29 07:09:01;;;;;;;12.60;8.20;;;4.10;99.90;;;;;;5076271;28;20082;-63
2023/01/29 07:11:27;;;;;;;12.80;8.18;;;4.10;99.90;;;;;;5076076;28;20072;-63
2023/01/29 07:13:53;;;;;;;14.02;8.77;;;4.10;99.90;;;;;;5076170;28;20564;-63
2023/01/29 07:16:18;;;;;;;15.40;8.13;;;4.10;99.90;;;;;;5075903;28;20040;-63
2023/01/29 07:18:44;;;;;;;15.68;8.48;;;4.10;99.90;;;;;;5076160;28;20033;-63
2023/01/29 07:21:09;;;;;;;12.57;7.65;;;4.10;99.90;;;;;;5074526;28;20111;-63
2023/01/29 07:23:35;;;;;;;16.52;8.52;;;4.10;99.90;;;;;;5076003;28;20119;-63
2023/01/29 07:26:03;;;;;;;15.82;9.10;;;4.10;99.90;;;;;;5075899;28;20111;-63
2023/01/29 07:28:29;;;;;;;14.82;8.27;;;4.10;99.90;;;;;;5057658;28;20047;-63
2023/01/29 07:30:58;;;;;;;14.48;8.15;;;4.10;99.90;;;;;;5074379;28;20448;-64
2023/01/29 07:33:24;;;;;;;12.18;7.43;;;4.10;99.90;;;;;;5074218;28;20037;-64
2023/01/29 07:35:51;;;;;;;14.45;7.93;;;4.00;99.90;;;;;;5075397;28;20037;-64
2023/01/29 07:38:16;;;;;;;16.90;8.77;;;4.00;99.90;;;;;;5075649;28;20047;-63
2023/01/29 07:40:42;;;;;;;14.93;7.75;;;4.10;99.90;;;;;;5075595;28;20040;-63
2023/01/29 07:43:09;;;;;;;17.63;9.52;;;4.00;99.90;;;;;;5075582;28;20522;-63
2023/01/29 07:45:36;;;;;;;19.05;8.75;;;4.10;99.90;;;;;;5075586;28;20445;-64
2023/01/29 07:48:03;;;;;;;17.75;7.93;;;4.10;99.90;;;;;;5075530;28;20068;-64
2023/01/29 07:50:30;;;;;;;17.05;9.73;;;4.00;99.90;;;;;;5075404;28;20072;-62
2023/01/29 07:52:55;;;;;;;14.35;7.90;;;4.10;99.90;;;;;;5075364;28;20040;-63
2023/01/29 07:55:21;;;;;;;14.18;8.60;;;4.00;99.90;;;;;;5057442;28;20498;-63
2023/01/29 07:57:47;;;;;;;15.48;8.65;;;4.00;99.90;;;;;;5075342;28;20044;-63
2023/01/29 08:00:13;;;;;;;15.57;8.68;;;4.00;99.90;;;;;;5075250;28;20166;-62
2023/01/29 08:02:40;;;;;;;13.90;8.25;;;4.00;99.90;;;;;;5075208;28;20169;-62
2023/01/29 08:05:06;;;;;;;15.95;8.52;;;3.90;99.90;;;;;;5074973;28;20056;-63
2023/01/29 08:07:31;;;;;;;13.25;8.43;;;3.90;99.90;;;;;;5075174;28;20127;-63
2023/01/29 08:09:57;;;;;;;15.57;9.30;;;3.90;99.90;;;;;;5075002;28;20499;-62
2023/01/29 08:12:23;;;;;;;18.13;8.73;;;3.90;99.90;;;;;;5074974;28;20079;-63
2023/01/29 08:14:49;;;;;;;15.05;9.18;;;3.90;99.90;;;;;;5074381;28;20111;-63
2023/01/29 08:17:14;;;;;;;16.80;8.68;;;3.90;99.90;;;;;;5074020;28;20039;-62
2023/01/29 08:19:40;;;;;;;18.67;8.80;;;3.90;99.90;;;;;;5074852;28;20037;-62
2023/01/29 08:22:06;;;;;;;14.57;8.73;;;3.90;99.90;;;;;;5056795;28;20052;-63
2023/01/29 08:24:31;;;;;;;15.73;8.75;;;3.90;99.90;;;;;;5074781;28;20033;-63
2023/01/29 08:26:57;;;;;;;15.05;9.25;;;4.00;99.90;;;;;;5074469;28;20115;-63
2023/01/29 08:29:23;;;;;;;13.98;7.95;;;4.00;99.90;;;;;;5074612;28;20392;-63
2023/01/29 08:31:49;;;;;;;16.15;9.82;;;4.00;99.90;;;;;;5073013;28;20089;-62
2023/01/29 08:34:14;;;;;;;20.83;8.57;;;4.10;99.90;;;;;;5074258;28;20119;-63
2023/01/29 08:36:40;;;;;;;12.55;7.57;;;4.10;99.90;;;;;;5074543;28;20036;-63
2023/01/29 08:39:06;;;;;;;16.15;8.10;;;4.10;99.90;;;;;;5072848;28;20045;-63
2023/01/29 08:41:31;;;;;;;17.90;10.38;;;4.20;99.90;;;;;;5074463;28;20115;-63
2023/01/29 08:43:59;;;;;;;13.10;8.27;;;4.20;99.90;;;;;;5074185;28;20043;-64
2023/01/29 08:46:24;;;;;;;23.83;10.23;;;4.20;99.90;;;;;;5074341;28;20040;-62
2023/01/29 08:48:50;;;;;;;14.23;8.23;;;4.20;99.90;;;;;;5074118;28;20090;-62
2023/01/29 08:51:16;;;;;;;17.65;9.82;;;4.20;99.90;;;;;;5074223;28;20127;-63
2023/01/29 08:53:41;;;;;;;16.52;8.60;;;4.30;99.90;;;;;;5074393;28;20033;-63
2023/01/29 08:56:07;;;;;;;16.45;8.50;;;4.30;99.90;;;;;;5074245;28;20033;-62
2023/01/29 08:58:32;;;;;;;14.00;7.90;;;4.30;99.90;;;;;;5074285;28;20043;-63
2023/01/29 09:01:08;;;;;;;16.42;8.00;;;4.40;99.90;;;;;;5074094;28;20463;-63
2023/01/29 09:03:34;;;;;;;15.95;9.30;;;4.40;99.90;;;;;;5074101;28;20368;-63
2023/01/29 09:06:00;;;;;;;16.40;8.70;;;4.40;99.90;;;;;;5073541;28;20106;-63
2023/01/29 09:08:25;;;;;;;17.30;9.25;;;4.30;99.90;;;;;;5074018;28;20237;-63
2023/01/29 09:10:51;;;;;;;16.60;8.75;;;4.50;99.90;;;;;;5073818;28;20079;-63
2023/01/29 09:13:16;;;;;;;17.73;10.02;;;4.60;99.90;;;;;;5073884;28;20116;-63
2023/01/29 09:15:42;;;;;;;19.73;9.75;;;4.50;99.90;;;;;;5073866;28;20043;-63
2023/01/29 09:18:08;;;;;;;15.63;9.32;;;4.50;99.90;;;;;;5072125;28;20040;-63
2023/01/29 09:20:36;;;;;;;14.07;8.52;;;4.60;99.90;;;;;;5073688;28;20161;-63
2023/01/29 09:23:09;;;;;;;21.35;10.02;;;4.50;99.10;;;;;;5072415;28;20067;-63
2023/01/29 09:25:35;;;;;;;22.25;10.25;;;4.60;96.80;;;;;;5073716;28;20041;-63
2023/01/29 09:28:01;;;;;;;19.60;8.93;;;4.70;99.30;;;;;;5073250;28;20120;-63
2023/01/29 09:30:26;;;;;;;14.88;7.90;;;4.70;96.90;;;;;;5073544;28;20119;-63
2023/01/29 09:32:52;;;;;;;16.17;9.18;;;4.70;97.60;;;;;;5073257;28;20040;-63
2023/01/29 09:35:18;;;;;;;18.67;9.93;;;4.70;99.90;;;;;;5073477;28;20071;-63
2023/01/29 09:37:47;;;;;;;20.35;10.25;;;4.80;99.90;;;;;;5073052;28;20111;-64
2023/01/29 09:40:50;;;;;;;17.30;8.75;;;4.70;97.20;;;;;;5071896;28;20044;-63
2023/01/29 09:43:49;;;;;;;18.10;9.80;;;4.80;96.80;;;;;;5071759;28;20063;-62
2023/01/29 09:46:27;;;;;;;19.77;9.50;;;4.90;92.70;;;;;;5073326;28;20040;-62
2023/01/29 09:49:25;;;;;;;16.15;8.45;;;4.90;94.20;;;;;;5073281;28;20056;-62
2023/01/29 09:52:02;;;;;;;17.83;9.77;;;4.90;97.20;;;;;;5071681;28;20059;-63
2023/01/29 09:54:33;;;;;;;12.60;7.50;;;4.90;98.90;;;;;;5073147;28;20499;-63
2023/01/29 09:56:59;;;;;;;17.67;9.18;;;4.90;98.00;;;;;;5073118;28;20032;-62
2023/01/29 09:59:30;;;;;;;16.10;9.35;;;4.90;99.60;;;;;;5073139;28;20111;-62
2023/01/29 10:02:09;;;;;;;17.80;9.60;;;4.90;97.10;;;;;;5073179;28;20052;-62
2023/01/29 10:05:03;;;;;;;16.88;9.57;;;4.90;96.70;;;;;;5072723;28;20098;-63
2023/01/29 10:07:55;;;;;;;18.10;8.18;;;5.00;98.00;;;;;;5073127;28;20042;-63
2023/01/29 10:10:52;;;;;;;13.43;8.52;;;4.90;98.10;;;;;;5072983;28;20049;-63
2023/01/29 10:13:36;;;;;;;17.20;8.98;;;4.90;98.70;;;;;;5059181;28;20051;-62
2023/01/29 10:16:27;;;;;;;18.42;8.63;;;4.90;99.20;;;;;;5072937;28;20036;-63
2023/01/29 10:19:07;;;;;;;21.63;9.18;;;4.90;98.10;;;;;;5073025;28;20609;-62
2023/01/29 10:21:57;;;;;;;16.67;9.68;;;4.90;98.40;;;;;;5072860;28;20123;-62
2023/01/29 10:24:51;;;;;;;23.00;10.85;;;4.90;96.60;;;;;;5071280;28;20424;-62
2023/01/29 10:27:18;;;;;;;18.90;10.15;;;4.90;95.60;;;;;;5071284;28;20059;-62
2023/01/29 10:29:46;;;;;;;12.48;7.43;;;4.90;96.20;;;;;;5072771;28;20048;-62
2023/01/29 10:32:16;;;;;;;18.38;8.98;;;4.90;94.00;;;;;;5071493;28;20047;-63
2023/01/29 10:34:58;;;;;;;15.13;8.52;;;4.90;94.20;;;;;;5072748;28;20119;-62
2023/01/29 10:37:39;;;;;;;21.10;10.07;;;4.90;95.10;;;;;;5072347;28;20399;-62
2023/01/29 10:40:46;;;;;;;20.40;10.07;;;5.00;99.90;;;;;;5075664;28;20044;-62
2023/01/29 10:43:34;;;;;;;24.38;9.40;;;5.00;99.90;;;;;;5067978;28;20086;-62
2023/01/29 10:46:12;;;;;;;17.33;8.95;;;5.00;99.90;;;;;;5076561;28;20085;-62
2023/01/29 10:49:28;;;;;;;27.98;10.30;;;5.10;99.90;;;;;;5076655;28;20124;-63
2023/01/29 10:52:10;;;;;;;22.83;9.38;;;5.00;99.90;;;;;;5076481;28;20033;-62
2023/01/29 10:54:56;;;;;;;17.60;9.80;;;5.00;99.90;;;;;;5076531;28;20540;-63
2023/01/29 10:57:35;;;;;;;18.63;9.68;;;4.90;99.90;;;;;;5076444;28;20032;-63
2023/01/29 11:00:09;;;;;;;16.75;10.35;;;4.90;99.90;;;;;;5076301;28;20033;-63
2023/01/29 11:02:34;;;;;;;16.52;9.88;;;4.90;99.90;;;;;;5075002;28;20028;-63
2023/01/29 11:05:00;;;;;;;16.88;10.20;;;4.90;99.90;;;;;;5076021;28;20056;-62
2023/01/29 11:07:26;;;;;;;18.75;8.85;;;4.80;99.90;;;;;;5076159;28;20475;-62
2023/01/29 11:10:13;;;;;;;20.90;10.60;;;4.90;99.90;;;;;;5076198;28;20052;-63
2023/01/29 11:12:42;;;;;;;19.80;9.73;;;4.80;99.90;;;;;;5076118;28;20056;-63
2023/01/29 11:15:18;;;;;;;24.05;10.05;;;4.90;99.90;;;;;;5075753;28;20039;-63
2023/01/29 11:18:04;;;;;;;15.75;8.48;;;4.90;99.90;;;;;;5076042;28;20438;-63
2023/01/29 11:20:31;;;;;;;15.85;9.50;;;4.90;99.90;;;;;;5075990;28;20078;-63
2023/01/29 11:22:58;;;;;;;18.35;9.55;;;4.90;99.90;;;;;;5075569;28;20078;-62
2023/01/29 11:25:24;;;;;;;14.48;9.32;;;4.90;99.90;;;;;;5074294;28;20052;-62
2023/01/29 11:27:55;;;;;;;18.77;10.27;;;4.90;99.90;;;;;;5075880;28;20380;-62
2023/01/29 11:30:29;;;;;;;17.83;9.27;;;4.90;99.90;;;;;;5075367;28;20044;-63
2023/01/29 11:33:08;;;;;;;21.75;9.48;;;4.90;99.90;;;;;;5074282;28;20036;-63
2023/01/29 11:35:35;;;;;;;18.83;8.98;;;4.90;99.90;;;;;;5075636;28;20039;-63
2023/01/29 11:38:14;;;;;;;20.20;9.77;;;4.90;99.90;;;;;;5075633;28;20480;-62
2023/01/29 11:40:41;;;;;;;17.92;9.70;;;4.90;99.90;;;;;;5075755;28;20047;-62
2023/01/29 11:43:25;;;;;;;17.33;10.48;;;4.90;99.90;;;;;;5075610;28;20051;-62
2023/01/29 11:45:54;;;;;;;17.58;9.65;;;4.90;99.90;;;;;;5075561;28;20043;-63
2023/01/29 11:48:25;;;;;;;17.35;8.93;;;4.90;99.90;;;;;;5075489;28;20036;-62
2023/01/29 11:50:59;;;;;;;18.02;9.50;;;4.90;99.90;;;;;;5074099;28;20048;-62
2023/01/29 11:53:41;;;;;;;17.45;9.77;;;4.90;99.90;;;;;;5073926;28;20036;-62
2023/01/29 11:56:29;;;;;;;25.35;11.13;;;5.00;99.90;;;;;;5075194;28;20036;-61
2023/01/29 11:58:56;;;;;;;20.05;11.07;;;5.00;99.90;;;;;;5075404;28;20171;-62
2023/01/29 12:01:37;;;;;;;23.67;11.75;;;4.90;99.90;;;;;;5075303;28;20075;-62
2023/01/29 12:04:18;;;;;;;19.25;10.75;;;5.00;99.90;;;;;;5075379;28;20072;-63
2023/01/29 12:06:47;;;;;;;25.35;11.45;;;4.90;99.90;;;;;;5073753;28;20157;-63
2023/01/29 12:09:18;;;;;;;23.45;10.82;;;4.90;99.90;;;;;;5074896;28;20042;-63
2023/01/29 12:11:44;;;;;;;19.13;10.05;;;4.90;99.90;;;;;;5073659;28;20056;-64
2023/01/29 12:14:32;;;;;;;23.52;12.07;;;4.90;99.90;;;;;;5075147;28;20479;-62
2023/01/29 12:17:03;;;;;;;15.90;9.25;;;4.90;99.90;;;;;;5075129;28;20104;-62
2023/01/29 12:19:51;;;;;;;18.00;9.38;;;5.00;99.90;;;;;;5074991;28;20067;-62
2023/01/29 12:22:41;;;;;;;14.95;9.38;;;5.00;99.90;;;;;;5074896;28;20381;-61
2023/01/29 12:25:47;;;;;;;18.13;10.57;;;5.10;99.90;;;;;;5074867;28;20480;-62
2023/01/29 12:28:34;;;;;;;14.60;8.75;;;5.10;99.90;;;;;;5031591;28;20070;-63
2023/01/29 12:31:31;;;;;;;19.27;11.48;;;5.20;99.90;;;;;;5074695;28;20419;-62
2023/01/29 12:34:26;;;;;;;19.73;8.93;;;5.20;99.90;;;;;;5074808;28;20064;-62
2023/01/29 12:36:58;;;;;;;18.67;9.15;;;5.30;99.90;;;;;;5074411;28;20063;-62
2023/01/29 12:39:24;;;;;;;17.23;9.50;;;5.30;99.90;;;;;;5074194;28;20116;-62
2023/01/29 12:41:57;;;;;;;11.57;6.63;;;5.30;99.90;;;;;;5074550;28;20033;-62
2023/01/29 12:44:40;;;;;;;15.48;7.88;;;5.30;99.90;;;;;;5074578;28;20066;-62
2023/01/29 12:47:13;;;;;;;14.10;7.68;;;5.30;99.90;;;;;;5074254;28;20477;-62
2023/01/29 12:49:42;;;;;;;23.58;10.27;;;5.40;99.90;;;;;;5074184;28;20119;-62
2023/01/29 12:52:13;;;;;;;14.95;8.02;;;5.40;99.90;;;;;;5073988;28;20045;-61
2023/01/29 12:54:46;;;;;;;16.38;8.15;;;5.40;99.90;;;;;;5074549;28;20048;-62
2023/01/29 12:57:24;;;;;;;13.75;8.35;;;3.30;99.90;;;;;;5074285;28;20036;-62
2023/01/29 13:00:05;;;;;;;18.38;7.30;;;5.50;99.90;;;;;;5073909;28;20040;-61
2023/01/29 13:02:39;;;;;;;12.50;7.60;;;5.50;99.90;;;;;;5073560;28;20032;-61
2023/01/29 13:05:15;;;;;;;13.95;7.90;;;5.40;99.90;;;;;;5073702;28;20048;-62
2023/01/29 13:07:45;;;;;;;15.10;8.02;;;5.40;99.90;;;;;;5073719;28;20045;-62
2023/01/29 13:10:15;;;;;;;8.00;4.85;;;5.40;99.90;;;;;;5073967;28;20036;-61
2023/01/29 13:12:57;;;;;;;15.80;7.70;;;5.40;99.90;;;;;;5072695;28;20055;-61
2023/01/29 13:15:29;;;;;;;14.45;8.05;;;5.50;99.90;;;;;;5073620;28;20070;-62
2023/01/29 13:18:17;;;;;;;13.88;5.97;;;5.40;99.90;;;;;;5073900;28;20043;-61
2023/01/29 13:20:45;;;;;;;11.68;5.40;;;5.50;99.90;;;;;;5062699;28;20158;-62
2023/01/29 13:23:39;;;;;;;15.63;8.40;;;5.50;99.90;;;;;;5072151;28;20174;-60
2023/01/29 13:26:05;;;;;;;21.25;7.63;;;5.50;99.90;;;;;;5071255;28;20053;-61
2023/01/29 13:28:31;;;;;;;14.88;7.28;;;5.50;99.90;;;;;;5073605;28;20411;-62
2023/01/29 13:31:21;;;;;;;12.43;6.50;;;5.50;99.90;;;;;;5072041;28;20129;-61
2023/01/29 13:34:11;;;;;;;12.50;7.78;;;5.50;99.90;;;;;;5071953;28;20041;-61
2023/01/29 13:36:43;;;;;;;12.88;5.80;;;5.50;99.90;;;;;;5073314;28;20445;-61
2023/01/29 13:39:25;;;;;;;15.77;7.97;;;5.40;99.90;;;;;;5073379;28;20079;-61
2023/01/29 13:41:52;;;;;;;13.85;6.85;;;5.40;99.90;;;;;;5055136;28;20044;-61
2023/01/29 13:44:20;;;;;;;15.70;8.68;;;5.30;99.90;;;;;;5072900;28;20036;-61
2023/01/29 13:46:56;;;;;;;21.45;7.75;;;5.30;99.90;;;;;;5071781;28;20166;-61